sensor_id;sensor_type;location;lat;lon;timestamp;P1;durP1;ratioP1;P2;durP2;ratioP2
52306;SDS011;38249;48.920;12.882;2022-09-13T00:01:58;4.32;;;3.88;;
52306;SDS011;38249;48.920;12.882;2022-09-13T00:04:25;5.28;;;3.97;;
52306;SDS011;38249;48.920;12.882;2022-09-13T00:06:51;4.07;;;3.67;;
52306;SDS011;38249;48.920;12.882;2022-09-13T00:09:18;4.63;;;3.75;;
52306;SDS011;38249;48.920;12.882;2022-09-13T00:11:44;3.95;;;3.50;;
52306;SDS011;38249;48.920;12.882;2022-09-13T00:14:11;5.55;;;3.65;;
52306;SDS011;38249;48.920;12.882;2022-09-13T00:16:37;4.15;;;3.75;;
52306;SDS011;38249;48.920;12.882;2022-09-13T00:19:05;4.78;;;4.10;;
52306;SDS011;38249;48.920;12.882;2022-09-13T00:21:31;5.28;;;4.78;;
52306;SDS011;38249;48.920;12.882;2022-09-13T00:23:58;4.68;;;3.63;;
52306;SDS011;38249;48.920;12.882;2022-09-13T00:26:26;3.92;;;3.53;;
52306;SDS011;38249;48.920;12.882;2022-09-13T00:28:54;4.30;;;3.60;;
52306;SDS011;38249;48.920;12.882;2022-09-13T00:31:23;4.03;;;3.40;;
52306;SDS011;38249;48.920;12.882;2022-09-13T00:33:51;6.47;;;3.33;;
52306;SDS011;38249;48.920;12.882;2022-09-13T00:36:19;6.95;;;3.17;;
52306;SDS011;38249;48.920;12.882;2022-09-13T00:38:46;4.57;;;3.85;;
52306;SDS011;38249;48.920;12.882;2022-09-13T00:41:13;3.90;;;3.50;;
52306;SDS011;38249;48.920;12.882;2022-09-13T00:43:43;4.95;;;3.58;;
52306;SDS011;38249;48.920;12.882;2022-09-13T00:46:12;4.65;;;3.88;;
52306;SDS011;38249;48.920;12.882;2022-09-13T00:48:43;4.70;;;3.50;;
52306;SDS011;38249;48.920;12.882;2022-09-13T00:51:11;6.07;;;4.20;;
52306;SDS011;38249;48.920;12.882;2022-09-13T00:53:41;5.10;;;4.05;;
52306;SDS011;38249;48.920;12.882;2022-09-13T00:56:11;4.15;;;3.75;;
52306;SDS011;38249;48.920;12.882;2022-09-13T00:58:41;6.50;;;3.88;;
52306;SDS011;38249;48.920;12.882;2022-09-13T01:01:13;6.45;;;3.47;;
52306;SDS011;38249;48.920;12.882;2022-09-13T01:03:42;4.65;;;3.80;;
52306;SDS011;38249;48.920;12.882;2022-09-13T01:06:11;3.90;;;3.40;;
52306;SDS011;38249;48.920;12.882;2022-09-13T01:08:44;3.97;;;3.58;;
52306;SDS011;38249;48.920;12.882;2022-09-13T01:11:16;3.58;;;3.28;;
52306;SDS011;38249;48.920;12.882;2022-09-13T01:13:49;4.13;;;3.72;;
52306;SDS011;38249;48.920;12.882;2022-09-13T01:16:16;3.88;;;3.55;;
52306;SDS011;38249;48.920;12.882;2022-09-13T01:18:43;4.20;;;3.80;;
52306;SDS011;38249;48.920;12.882;2022-09-13T01:21:25;4.35;;;3.95;;
52306;SDS011;38249;48.920;12.882;2022-09-13T01:24:30;4.28;;;3.55;;
52306;SDS011;38249;48.920;12.882;2022-09-13T01:27:19;6.28;;;4.50;;
52306;SDS011;38249;48.920;12.882;2022-09-13T01:30:15;5.47;;;3.80;;
52306;SDS011;38249;48.920;12.882;2022-09-13T01:36:04;4.55;;;4.15;;
52306;SDS011;38249;48.920;12.882;2022-09-13T01:38:47;5.13;;;4.47;;
52306;SDS011;38249;48.920;12.882;2022-09-13T01:41:26;5.07;;;4.25;;
52306;SDS011;38249;48.920;12.882;2022-09-13T01:44:09;5.45;;;4.85;;
52306;SDS011;38249;48.920;12.882;2022-09-13T01:46:47;4.47;;;4.05;;
52306;SDS011;38249;48.920;12.882;2022-09-13T01:49:20;7.40;;;6.47;;
52306;SDS011;38249;48.920;12.882;2022-09-13T01:51:55;5.55;;;4.70;;
52306;SDS011;38249;48.920;12.882;2022-09-13T01:54:28;9.57;;;5.57;;
52306;SDS011;38249;48.920;12.882;2022-09-13T01:57:02;7.90;;;5.05;;
52306;SDS011;38249;48.920;12.882;2022-09-13T01:59:38;7.63;;;4.05;;
52306;SDS011;38249;48.920;12.882;2022-09-13T02:02:16;6.40;;;3.95;;
52306;SDS011;38249;48.920;12.882;2022-09-13T02:04:47;5.72;;;4.10;;
52306;SDS011;38249;48.920;12.882;2022-09-13T02:07:18;5.53;;;4.35;;
52306;SDS011;38249;48.920;12.882;2022-09-13T02:09:53;6.80;;;4.35;;
52306;SDS011;38249;48.920;12.882;2022-09-13T02:12:24;5.63;;;4.68;;
52306;SDS011;38249;48.920;12.882;2022-09-13T02:14:54;5.80;;;4.50;;
52306;SDS011;38249;48.920;12.882;2022-09-13T02:17:26;4.78;;;4.00;;
52306;SDS011;38249;48.920;12.882;2022-09-13T02:19:56;4.82;;;4.38;;
52306;SDS011;38249;48.920;12.882;2022-09-13T02:22:27;5.30;;;4.80;;
52306;SDS011;38249;48.920;12.882;2022-09-13T02:25:02;6.80;;;5.03;;
52306;SDS011;38249;48.920;12.882;2022-09-13T02:27:34;7.43;;;5.45;;
52306;SDS011;38249;48.920;12.882;2022-09-13T02:30:05;6.90;;;5.57;;
52306;SDS011;38249;48.920;12.882;2022-09-13T02:32:36;7.30;;;5.60;;
52306;SDS011;38249;48.920;12.882;2022-09-13T02:35:06;6.00;;;5.03;;
52306;SDS011;38249;48.920;12.882;2022-09-13T02:37:37;5.90;;;4.88;;
52306;SDS011;38249;48.920;12.882;2022-09-13T02:40:06;5.95;;;5.35;;
52306;SDS011;38249;48.920;12.882;2022-09-13T02:42:37;8.32;;;5.32;;
52306;SDS011;38249;48.920;12.882;2022-09-13T02:45:08;6.53;;;5.82;;
52306;SDS011;38249;48.920;12.882;2022-09-13T02:47:40;7.45;;;5.47;;
52306;SDS011;38249;48.920;12.882;2022-09-13T02:50:23;6.20;;;5.15;;
52306;SDS011;38249;48.920;12.882;2022-09-13T02:53:01;5.65;;;4.93;;
52306;SDS011;38249;48.920;12.882;2022-09-13T02:55:33;6.20;;;5.03;;
52306;SDS011;38249;48.920;12.882;2022-09-13T02:58:08;6.80;;;5.18;;
52306;SDS011;38249;48.920;12.882;2022-09-13T03:00:39;7.78;;;6.05;;
52306;SDS011;38249;48.920;12.882;2022-09-13T03:03:08;6.35;;;5.22;;
52306;SDS011;38249;48.920;12.882;2022-09-13T03:05:37;6.28;;;5.03;;
52306;SDS011;38249;48.920;12.882;2022-09-13T03:08:04;6.10;;;5.35;;
52306;SDS011;38249;48.920;12.882;2022-09-13T03:10:36;6.05;;;4.65;;
52306;SDS011;38249;48.920;12.882;2022-09-13T03:16:04;15.27;;;11.75;;
52306;SDS011;38249;48.920;12.882;2022-09-13T03:18:47;19.70;;;14.38;;
52306;SDS011;38249;48.920;12.882;2022-09-13T03:21:25;9.77;;;7.97;;
52306;SDS011;38249;48.920;12.882;2022-09-13T03:24:06;12.45;;;9.85;;
52306;SDS011;38249;48.920;12.882;2022-09-13T03:26:42;17.75;;;13.60;;
52306;SDS011;38249;48.920;12.882;2022-09-13T03:29:20;9.18;;;5.90;;
52306;SDS011;38249;48.920;12.882;2022-09-13T03:31:57;8.57;;;5.60;;
52306;SDS011;38249;48.920;12.882;2022-09-13T03:34:36;5.68;;;5.13;;
52306;SDS011;38249;48.920;12.882;2022-09-13T03:37:13;11.40;;;8.45;;
52306;SDS011;38249;48.920;12.882;2022-09-13T03:39:49;8.40;;;6.25;;
52306;SDS011;38249;48.920;12.882;2022-09-13T03:42:21;8.10;;;5.78;;
52306;SDS011;38249;48.920;12.882;2022-09-13T03:44:52;6.72;;;5.93;;
52306;SDS011;38249;48.920;12.882;2022-09-13T03:47:21;6.65;;;5.95;;
52306;SDS011;38249;48.920;12.882;2022-09-13T03:49:51;6.32;;;5.57;;
52306;SDS011;38249;48.920;12.882;2022-09-13T03:52:20;7.82;;;5.07;;
52306;SDS011;38249;48.920;12.882;2022-09-13T03:54:46;6.75;;;6.05;;
52306;SDS011;38249;48.920;12.882;2022-09-13T03:57:14;6.57;;;5.53;;
52306;SDS011;38249;48.920;12.882;2022-09-13T03:59:42;7.53;;;6.72;;
52306;SDS011;38249;48.920;12.882;2022-09-13T04:02:11;8.77;;;6.43;;
52306;SDS011;38249;48.920;12.882;2022-09-13T04:04:38;11.30;;;7.05;;
52306;SDS011;38249;48.920;12.882;2022-09-13T04:07:06;10.30;;;6.25;;
52306;SDS011;38249;48.920;12.882;2022-09-13T04:09:34;7.65;;;6.78;;
52306;SDS011;38249;48.920;12.882;2022-09-13T04:12:01;9.90;;;7.20;;
52306;SDS011;38249;48.920;12.882;2022-09-13T04:14:28;10.68;;;6.78;;
52306;SDS011;38249;48.920;12.882;2022-09-13T04:16:55;10.55;;;7.47;;
52306;SDS011;38249;48.920;12.882;2022-09-13T04:19:23;9.30;;;6.22;;
52306;SDS011;38249;48.920;12.882;2022-09-13T04:21:50;8.55;;;6.70;;
52306;SDS011;38249;48.920;12.882;2022-09-13T04:24:19;9.30;;;6.65;;
52306;SDS011;38249;48.920;12.882;2022-09-13T04:26:47;9.88;;;7.93;;
52306;SDS011;38249;48.920;12.882;2022-09-13T04:29:15;15.88;;;12.77;;
52306;SDS011;38249;48.920;12.882;2022-09-13T04:31:42;9.95;;;7.35;;
52306;SDS011;38249;48.920;12.882;2022-09-13T04:34:08;12.45;;;9.65;;
52306;SDS011;38249;48.920;12.882;2022-09-13T04:36:35;12.02;;;9.93;;
52306;SDS011;38249;48.920;12.882;2022-09-13T04:39:01;26.75;;;20.48;;
52306;SDS011;38249;48.920;12.882;2022-09-13T04:41:29;10.65;;;8.95;;
52306;SDS011;38249;48.920;12.882;2022-09-13T04:43:58;10.32;;;8.25;;
52306;SDS011;38249;48.920;12.882;2022-09-13T04:46:25;9.88;;;7.88;;
52306;SDS011;38249;48.920;12.882;2022-09-13T04:48:52;9.20;;;7.43;;
52306;SDS011;38249;48.920;12.882;2022-09-13T04:51:18;9.05;;;7.65;;
52306;SDS011;38249;48.920;12.882;2022-09-13T04:53:45;9.95;;;8.43;;
52306;SDS011;38249;48.920;12.882;2022-09-13T04:56:16;8.15;;;7.13;;
52306;SDS011;38249;48.920;12.882;2022-09-13T04:58:45;10.68;;;7.55;;
52306;SDS011;38249;48.920;12.882;2022-09-13T05:01:11;10.50;;;8.70;;
52306;SDS011;38249;48.920;12.882;2022-09-13T05:03:38;11.20;;;8.70;;
52306;SDS011;38249;48.920;12.882;2022-09-13T05:06:05;20.25;;;15.15;;
52306;SDS011;38249;48.920;12.882;2022-09-13T05:08:33;18.73;;;14.60;;
52306;SDS011;38249;48.920;12.882;2022-09-13T05:11:00;17.92;;;13.60;;
52306;SDS011;38249;48.920;12.882;2022-09-13T05:13:28;16.17;;;10.30;;
52306;SDS011;38249;48.920;12.882;2022-09-13T05:15:56;14.48;;;10.77;;
52306;SDS011;38249;48.920;12.882;2022-09-13T05:18:24;10.60;;;7.55;;
52306;SDS011;38249;48.920;12.882;2022-09-13T05:20:52;13.40;;;9.73;;
52306;SDS011;38249;48.920;12.882;2022-09-13T05:23:19;10.52;;;6.93;;
52306;SDS011;38249;48.920;12.882;2022-09-13T05:25:50;12.95;;;9.93;;
52306;SDS011;38249;48.920;12.882;2022-09-13T05:28:18;9.95;;;7.20;;
52306;SDS011;38249;48.920;12.882;2022-09-13T05:30:44;9.57;;;7.63;;
52306;SDS011;38249;48.920;12.882;2022-09-13T05:33:21;9.55;;;7.03;;
52306;SDS011;38249;48.920;12.882;2022-09-13T05:35:47;9.07;;;6.47;;
52306;SDS011;38249;48.920;12.882;2022-09-13T05:38:14;7.07;;;6.25;;
52306;SDS011;38249;48.920;12.882;2022-09-13T05:40:40;11.73;;;7.47;;
52306;SDS011;38249;48.920;12.882;2022-09-13T05:43:07;7.63;;;6.50;;
52306;SDS011;38249;48.920;12.882;2022-09-13T05:45:33;7.88;;;5.90;;
52306;SDS011;38249;48.920;12.882;2022-09-13T05:48:00;7.60;;;5.80;;
52306;SDS011;38249;48.920;12.882;2022-09-13T05:50:28;7.60;;;6.40;;
52306;SDS011;38249;48.920;12.882;2022-09-13T05:52:55;7.22;;;5.88;;
52306;SDS011;38249;48.920;12.882;2022-09-13T05:55:22;7.38;;;6.32;;
52306;SDS011;38249;48.920;12.882;2022-09-13T05:57:48;7.28;;;6.10;;
52306;SDS011;38249;48.920;12.882;2022-09-13T06:00:15;6.70;;;5.38;;
52306;SDS011;38249;48.920;12.882;2022-09-13T06:02:42;7.28;;;5.72;;
52306;SDS011;38249;48.920;12.882;2022-09-13T06:05:08;7.80;;;6.38;;
52306;SDS011;38249;48.920;12.882;2022-09-13T06:07:39;8.45;;;5.80;;
52306;SDS011;38249;48.920;12.882;2022-09-13T06:10:06;9.80;;;8.80;;
52306;SDS011;38249;48.920;12.882;2022-09-13T06:12:33;8.63;;;6.80;;
52306;SDS011;38249;48.920;12.882;2022-09-13T06:15:00;16.40;;;12.40;;
52306;SDS011;38249;48.920;12.882;2022-09-13T06:17:26;9.13;;;7.85;;
52306;SDS011;38249;48.920;12.882;2022-09-13T06:19:53;12.13;;;10.73;;
52306;SDS011;38249;48.920;12.882;2022-09-13T06:22:21;8.43;;;7.18;;
52306;SDS011;38249;48.920;12.882;2022-09-13T06:24:48;11.23;;;8.45;;
52306;SDS011;38249;48.920;12.882;2022-09-13T06:27:15;11.85;;;9.27;;
52306;SDS011;38249;48.920;12.882;2022-09-13T06:29:41;7.75;;;6.82;;
52306;SDS011;38249;48.920;12.882;2022-09-13T06:32:08;7.07;;;6.35;;
52306;SDS011;38249;48.920;12.882;2022-09-13T06:34:34;7.22;;;5.93;;
52306;SDS011;38249;48.920;12.882;2022-09-13T06:37:01;7.90;;;6.20;;
52306;SDS011;38249;48.920;12.882;2022-09-13T06:39:28;8.70;;;5.93;;
52306;SDS011;38249;48.920;12.882;2022-09-13T06:41:57;8.18;;;5.82;;
52306;SDS011;38249;48.920;12.882;2022-09-13T06:44:24;6.47;;;5.85;;
52306;SDS011;38249;48.920;12.882;2022-09-13T06:46:50;8.32;;;6.10;;
52306;SDS011;38249;48.920;12.882;2022-09-13T06:49:17;10.35;;;6.63;;
52306;SDS011;38249;48.920;12.882;2022-09-13T06:51:43;22.23;;;17.77;;
52306;SDS011;38249;48.920;12.882;2022-09-13T06:54:10;29.08;;;22.15;;
52306;SDS011;38249;48.920;12.882;2022-09-13T06:56:36;18.83;;;14.45;;
52306;SDS011;38249;48.920;12.882;2022-09-13T06:59:06;25.80;;;18.45;;
52306;SDS011;38249;48.920;12.882;2022-09-13T07:01:35;28.13;;;23.25;;
52306;SDS011;38249;48.920;12.882;2022-09-13T07:04:03;29.88;;;24.80;;
52306;SDS011;38249;48.920;12.882;2022-09-13T07:06:31;19.85;;;14.85;;
52306;SDS011;38249;48.920;12.882;2022-09-13T07:09:00;9.50;;;6.85;;
52306;SDS011;38249;48.920;12.882;2022-09-13T07:11:31;7.55;;;6.35;;
52306;SDS011;38249;48.920;12.882;2022-09-13T07:13:59;6.50;;;5.90;;
52306;SDS011;38249;48.920;12.882;2022-09-13T07:16:28;7.85;;;6.30;;
52306;SDS011;38249;48.920;12.882;2022-09-13T07:18:56;7.63;;;6.18;;
52306;SDS011;38249;48.920;12.882;2022-09-13T07:21:24;7.28;;;6.40;;
52306;SDS011;38249;48.920;12.882;2022-09-13T07:23:51;9.05;;;6.88;;
52306;SDS011;38249;48.920;12.882;2022-09-13T07:26:19;9.13;;;6.35;;
52306;SDS011;38249;48.920;12.882;2022-09-13T07:28:47;7.00;;;6.35;;
52306;SDS011;38249;48.920;12.882;2022-09-13T07:31:16;7.15;;;6.03;;
52306;SDS011;38249;48.920;12.882;2022-09-13T07:33:46;6.97;;;5.80;;
52306;SDS011;38249;48.920;12.882;2022-09-13T07:36:13;5.63;;;5.03;;
52306;SDS011;38249;48.920;12.882;2022-09-13T07:38:41;7.57;;;6.30;;
52306;SDS011;38249;48.920;12.882;2022-09-13T07:41:10;6.20;;;5.60;;
52306;SDS011;38249;48.920;12.882;2022-09-13T07:43:38;6.70;;;6.00;;
52306;SDS011;38249;48.920;12.882;2022-09-13T07:46:05;11.55;;;5.68;;
52306;SDS011;38249;48.920;12.882;2022-09-13T07:48:34;7.05;;;5.30;;
52306;SDS011;38249;48.920;12.882;2022-09-13T07:51:03;6.15;;;5.40;;
52306;SDS011;38249;48.920;12.882;2022-09-13T07:53:31;6.97;;;6.10;;
52306;SDS011;38249;48.920;12.882;2022-09-13T07:55:59;7.00;;;6.15;;
52306;SDS011;38249;48.920;12.882;2022-09-13T07:58:27;5.50;;;5.00;;
52306;SDS011;38249;48.920;12.882;2022-09-13T08:00:54;5.45;;;4.95;;
52306;SDS011;38249;48.920;12.882;2022-09-13T08:03:22;5.95;;;5.35;;
52306;SDS011;38249;48.920;12.882;2022-09-13T08:05:49;6.10;;;5.50;;
52306;SDS011;38249;48.920;12.882;2022-09-13T08:08:17;6.43;;;5.00;;
52306;SDS011;38249;48.920;12.882;2022-09-13T08:10:44;6.93;;;5.47;;
52306;SDS011;38249;48.920;12.882;2022-09-13T08:13:11;7.53;;;5.35;;
52306;SDS011;38249;48.920;12.882;2022-09-13T08:15:37;7.60;;;4.93;;
52306;SDS011;38249;48.920;12.882;2022-09-13T08:18:04;6.95;;;5.20;;
52306;SDS011;38249;48.920;12.882;2022-09-13T08:20:33;6.25;;;4.90;;
52306;SDS011;38249;48.920;12.882;2022-09-13T08:23:01;6.82;;;6.22;;
52306;SDS011;38249;48.920;12.882;2022-09-13T08:25:29;6.72;;;5.13;;
52306;SDS011;38249;48.920;12.882;2022-09-13T08:27:57;7.43;;;5.65;;
52306;SDS011;38249;48.920;12.882;2022-09-13T08:30:23;5.78;;;5.25;;
52306;SDS011;38249;48.920;12.882;2022-09-13T08:32:57;5.53;;;4.80;;
52306;SDS011;38249;48.920;12.882;2022-09-13T08:35:23;5.50;;;5.00;;
52306;SDS011;38249;48.920;12.882;2022-09-13T08:37:50;5.82;;;5.18;;
52306;SDS011;38249;48.920;12.882;2022-09-13T08:40:16;6.10;;;5.45;;
52306;SDS011;38249;48.920;12.882;2022-09-13T08:42:46;5.88;;;5.07;;
52306;SDS011;38249;48.920;12.882;2022-09-13T08:45:18;5.78;;;5.22;;
52306;SDS011;38249;48.920;12.882;2022-09-13T08:47:48;6.35;;;5.78;;
52306;SDS011;38249;48.920;12.882;2022-09-13T08:50:20;5.95;;;5.40;;
52306;SDS011;38249;48.920;12.882;2022-09-13T08:55:46;6.40;;;5.80;;
52306;SDS011;38249;48.920;12.882;2022-09-13T08:58:27;6.97;;;6.28;;
52306;SDS011;38249;48.920;12.882;2022-09-13T09:01:02;5.60;;;5.10;;
52306;SDS011;38249;48.920;12.882;2022-09-13T09:03:37;5.97;;;5.38;;
52306;SDS011;38249;48.920;12.882;2022-09-13T09:06:11;6.35;;;5.75;;
52306;SDS011;38249;48.920;12.882;2022-09-13T09:08:40;9.15;;;5.40;;
52306;SDS011;38249;48.920;12.882;2022-09-13T09:11:12;5.68;;;5.18;;
52306;SDS011;38249;48.920;12.882;2022-09-13T09:13:48;6.05;;;5.50;;
52306;SDS011;38249;48.920;12.882;2022-09-13T09:16:24;5.82;;;5.32;;
52306;SDS011;38249;48.920;12.882;2022-09-13T09:18:56;5.20;;;4.80;;
52306;SDS011;38249;48.920;12.882;2022-09-13T09:21:27;5.18;;;4.63;;
52306;SDS011;38249;48.920;12.882;2022-09-13T09:23:55;5.07;;;4.05;;
52306;SDS011;38249;48.920;12.882;2022-09-13T09:26:23;14.18;;;4.18;;
52306;SDS011;38249;48.920;12.882;2022-09-13T09:28:55;9.00;;;3.78;;
52306;SDS011;38249;48.920;12.882;2022-09-13T09:31:26;3.85;;;3.55;;
52306;SDS011;38249;48.920;12.882;2022-09-13T09:34:06;4.50;;;4.10;;
52306;SDS011;38249;48.920;12.882;2022-09-13T09:36:39;4.28;;;3.50;;
52306;SDS011;38249;48.920;12.882;2022-09-13T09:39:10;3.67;;;2.95;;
52306;SDS011;38249;48.920;12.882;2022-09-13T09:41:40;3.25;;;3.00;;
52306;SDS011;38249;48.920;12.882;2022-09-13T09:44:16;3.15;;;2.95;;
52306;SDS011;38249;48.920;12.882;2022-09-13T09:46:45;3.17;;;2.83;;
52306;SDS011;38249;48.920;12.882;2022-09-13T09:49:15;2.42;;;2.22;;
52306;SDS011;38249;48.920;12.882;2022-09-13T09:52:02;2.78;;;2.58;;
52306;SDS011;38249;48.920;12.882;2022-09-13T09:54:34;2.55;;;2.35;;
52306;SDS011;38249;48.920;12.882;2022-09-13T09:57:03;3.03;;;2.75;;
52306;SDS011;38249;48.920;12.882;2022-09-13T09:59:32;3.10;;;2.80;;
52306;SDS011;38249;48.920;12.882;2022-09-13T10:02:00;3.10;;;2.80;;
52306;SDS011;38249;48.920;12.882;2022-09-13T10:04:36;3.13;;;2.83;;
52306;SDS011;38249;48.920;12.882;2022-09-13T10:07:07;4.22;;;3.22;;
52306;SDS011;38249;48.920;12.882;2022-09-13T10:09:36;2.75;;;2.55;;
52306;SDS011;38249;48.920;12.882;2022-09-13T10:12:03;4.25;;;3.08;;
52306;SDS011;38249;48.920;12.882;2022-09-13T10:14:36;3.65;;;2.83;;
52306;SDS011;38249;48.920;12.882;2022-09-13T10:17:14;4.30;;;3.78;;
52306;SDS011;38249;48.920;12.882;2022-09-13T10:19:55;4.20;;;3.33;;
52306;SDS011;38249;48.920;12.882;2022-09-13T10:22:23;3.05;;;2.85;;
52306;SDS011;38249;48.920;12.882;2022-09-13T10:24:53;2.95;;;2.70;;
52306;SDS011;38249;48.920;12.882;2022-09-13T10:27:23;4.25;;;3.28;;
52306;SDS011;38249;48.920;12.882;2022-09-13T10:29:56;3.13;;;2.72;;
52306;SDS011;38249;48.920;12.882;2022-09-13T10:32:26;2.95;;;2.75;;
52306;SDS011;38249;48.920;12.882;2022-09-13T10:34:54;2.78;;;2.58;;
52306;SDS011;38249;48.920;12.882;2022-09-13T10:37:26;2.60;;;2.40;;
52306;SDS011;38249;48.920;12.882;2022-09-13T10:39:57;3.15;;;2.83;;
52306;SDS011;38249;48.920;12.882;2022-09-13T10:42:29;2.53;;;2.42;;
52306;SDS011;38249;48.920;12.882;2022-09-13T10:44:58;2.65;;;2.45;;
52306;SDS011;38249;48.920;12.882;2022-09-13T10:47:28;3.55;;;2.30;;
52306;SDS011;38249;48.920;12.882;2022-09-13T10:50:10;2.88;;;2.67;;
52306;SDS011;38249;48.920;12.882;2022-09-13T10:52:41;3.28;;;2.97;;
52306;SDS011;38249;48.920;12.882;2022-09-13T10:58:15;2.20;;;2.10;;
52306;SDS011;38249;48.920;12.882;2022-09-13T11:00:52;3.10;;;2.90;;
52306;SDS011;38249;48.920;12.882;2022-09-13T11:03:40;2.70;;;2.50;;
52306;SDS011;38249;48.920;12.882;2022-09-13T11:06:23;2.88;;;2.67;;
52306;SDS011;38249;48.920;12.882;2022-09-13T11:08:55;5.72;;;3.25;;
52306;SDS011;38249;48.920;12.882;2022-09-13T11:11:30;3.30;;;2.80;;
52306;SDS011;38249;48.920;12.882;2022-09-13T11:14:05;3.53;;;3.23;;
52306;SDS011;38249;48.920;12.882;2022-09-13T11:16:48;4.88;;;3.50;;
52306;SDS011;38249;48.920;12.882;2022-09-13T11:19:31;3.38;;;3.00;;
52306;SDS011;38249;48.920;12.882;2022-09-13T11:22:17;3.38;;;2.88;;
52306;SDS011;38249;48.920;12.882;2022-09-13T11:27:49;3.45;;;3.15;;
52306;SDS011;38249;48.920;12.882;2022-09-13T11:30:25;3.70;;;3.40;;
52306;SDS011;38249;48.920;12.882;2022-09-13T11:33:02;3.97;;;3.55;;
52306;SDS011;38249;48.920;12.882;2022-09-13T11:36:09;3.80;;;3.15;;
52306;SDS011;38249;48.920;12.882;2022-09-13T11:38:50;6.38;;;3.30;;
52306;SDS011;38249;48.920;12.882;2022-09-13T11:41:28;3.65;;;3.35;;
52306;SDS011;38249;48.920;12.882;2022-09-13T11:47:12;3.67;;;3.35;;
52306;SDS011;38249;48.920;12.882;2022-09-13T11:49:49;4.88;;;3.25;;
52306;SDS011;38249;48.920;12.882;2022-09-13T11:52:31;3.25;;;2.95;;
52306;SDS011;38249;48.920;12.882;2022-09-13T11:55:12;3.20;;;2.85;;
52306;SDS011;38249;48.920;12.882;2022-09-13T11:57:43;3.67;;;3.30;;
52306;SDS011;38249;48.920;12.882;2022-09-13T12:00:15;3.70;;;3.40;;
52306;SDS011;38249;48.920;12.882;2022-09-13T12:02:47;3.72;;;3.42;;
52306;SDS011;38249;48.920;12.882;2022-09-13T12:05:23;4.03;;;3.25;;
52306;SDS011;38249;48.920;12.882;2022-09-13T12:07:53;4.78;;;3.53;;
52306;SDS011;38249;48.920;12.882;2022-09-13T12:10:26;3.43;;;3.13;;
52306;SDS011;38249;48.920;12.882;2022-09-13T12:12:55;3.88;;;3.55;;
52306;SDS011;38249;48.920;12.882;2022-09-13T12:15:28;4.88;;;3.70;;
52306;SDS011;38249;48.920;12.882;2022-09-13T12:18:03;6.03;;;3.58;;
52306;SDS011;38249;48.920;12.882;2022-09-13T12:20:37;4.18;;;3.30;;
52306;SDS011;38249;48.920;12.882;2022-09-13T12:23:10;3.58;;;3.28;;
52306;SDS011;38249;48.920;12.882;2022-09-13T12:25:42;5.27;;;3.80;;
52306;SDS011;38249;48.920;12.882;2022-09-13T12:28:15;12.63;;;4.03;;
52306;SDS011;38249;48.920;12.882;2022-09-13T12:30:49;7.55;;;4.53;;
52306;SDS011;38249;48.920;12.882;2022-09-13T12:33:20;10.07;;;4.90;;
52306;SDS011;38249;48.920;12.882;2022-09-13T12:35:51;16.85;;;5.18;;
52306;SDS011;38249;48.920;12.882;2022-09-13T12:38:31;10.45;;;4.55;;
52306;SDS011;38249;48.920;12.882;2022-09-13T12:41:24;14.10;;;4.20;;
52306;SDS011;38249;48.920;12.882;2022-09-13T12:44:12;9.63;;;4.10;;
52306;SDS011;38249;48.920;12.882;2022-09-13T12:46:56;11.65;;;4.97;;
52306;SDS011;38249;48.920;12.882;2022-09-13T12:49:46;12.75;;;4.57;;
52306;SDS011;38249;48.920;12.882;2022-09-13T12:52:33;11.10;;;4.93;;
52306;SDS011;38249;48.920;12.882;2022-09-13T12:58:05;16.75;;;5.35;;
52306;SDS011;38249;48.920;12.882;2022-09-13T13:00:47;15.65;;;4.97;;
52306;SDS011;38249;48.920;12.882;2022-09-13T13:03:29;11.77;;;3.38;;
52306;SDS011;38249;48.920;12.882;2022-09-13T13:06:06;10.02;;;3.60;;
52306;SDS011;38249;48.920;12.882;2022-09-13T13:08:37;9.38;;;4.00;;
52306;SDS011;38249;48.920;12.882;2022-09-13T13:11:06;11.65;;;3.83;;
52306;SDS011;38249;48.920;12.882;2022-09-13T13:13:35;7.47;;;4.10;;
52306;SDS011;38249;48.920;12.882;2022-09-13T13:16:05;8.77;;;3.42;;
52306;SDS011;38249;48.920;12.882;2022-09-13T13:18:46;7.60;;;4.05;;
52306;SDS011;38249;48.920;12.882;2022-09-13T13:33:21;6.07;;;3.70;;
52306;SDS011;38249;48.920;12.882;2022-09-13T13:35:51;4.30;;;3.20;;
52306;SDS011;38249;48.920;12.882;2022-09-13T13:38:38;4.85;;;3.33;;
52306;SDS011;38249;48.920;12.882;2022-09-13T13:41:34;5.07;;;3.38;;
52306;SDS011;38249;48.920;12.882;2022-09-13T13:50:22;5.10;;;3.97;;
52306;SDS011;38249;48.920;12.882;2022-09-13T13:52:50;3.60;;;3.30;;
52306;SDS011;38249;48.920;12.882;2022-09-13T13:55:26;3.42;;;3.13;;
52306;SDS011;38249;48.920;12.882;2022-09-13T13:58:11;6.40;;;3.45;;
52306;SDS011;38249;48.920;12.882;2022-09-13T14:00:54;4.57;;;3.90;;
52306;SDS011;38249;48.920;12.882;2022-09-13T14:03:25;5.25;;;4.25;;
52306;SDS011;38249;48.920;12.882;2022-09-13T14:06:01;4.57;;;3.63;;
52306;SDS011;38249;48.920;12.882;2022-09-13T14:08:41;3.70;;;3.33;;
52306;SDS011;38249;48.920;12.882;2022-09-13T14:11:18;4.20;;;3.67;;
52306;SDS011;38249;48.920;12.882;2022-09-13T14:13:59;4.68;;;3.38;;
52306;SDS011;38249;48.920;12.882;2022-09-13T14:16:43;4.32;;;3.35;;
52306;SDS011;38249;48.920;12.882;2022-09-13T14:19:22;3.60;;;3.30;;
52306;SDS011;38249;48.920;12.882;2022-09-13T14:24:37;4.90;;;4.00;;
52306;SDS011;38249;48.920;12.882;2022-09-13T14:27:09;3.72;;;3.38;;
52306;SDS011;38249;48.920;12.882;2022-09-13T14:29:44;5.78;;;3.50;;
52306;SDS011;38249;48.920;12.882;2022-09-13T14:32:13;5.40;;;3.20;;
52306;SDS011;38249;48.920;12.882;2022-09-13T14:34:51;5.15;;;4.60;;
52306;SDS011;38249;48.920;12.882;2022-09-13T14:37:20;5.10;;;4.50;;
52306;SDS011;38249;48.920;12.882;2022-09-13T14:39:58;5.22;;;3.53;;
52306;SDS011;38249;48.920;12.882;2022-09-13T14:42:26;5.35;;;3.40;;
52306;SDS011;38249;48.920;12.882;2022-09-13T14:45:04;4.93;;;2.90;;
52306;SDS011;38249;48.920;12.882;2022-09-13T14:47:31;4.82;;;3.25;;
52306;SDS011;38249;48.920;12.882;2022-09-13T14:50:02;4.80;;;2.80;;
52306;SDS011;38249;48.920;12.882;2022-09-13T14:52:32;5.22;;;3.53;;
52306;SDS011;38249;48.920;12.882;2022-09-13T14:55:02;6.50;;;3.88;;
52306;SDS011;38249;48.920;12.882;2022-09-13T14:57:35;4.38;;;3.30;;
52306;SDS011;38249;48.920;12.882;2022-09-13T15:00:06;8.32;;;3.80;;
52306;SDS011;38249;48.920;12.882;2022-09-13T15:02:42;5.80;;;3.95;;
52306;SDS011;38249;48.920;12.882;2022-09-13T15:05:13;3.90;;;3.40;;
52306;SDS011;38249;48.920;12.882;2022-09-13T15:07:43;3.55;;;3.25;;
52306;SDS011;38249;48.920;12.882;2022-09-13T15:10:19;3.53;;;3.20;;
52306;SDS011;38249;48.920;12.882;2022-09-13T15:12:51;6.68;;;4.25;;
52306;SDS011;38249;48.920;12.882;2022-09-13T15:15:22;6.93;;;3.10;;
52306;SDS011;38249;48.920;12.882;2022-09-13T15:17:55;7.35;;;5.03;;
52306;SDS011;38249;48.920;12.882;2022-09-13T15:20:23;3.20;;;2.90;;
52306;SDS011;38249;48.920;12.882;2022-09-13T15:22:52;4.38;;;3.97;;
52306;SDS011;38249;48.920;12.882;2022-09-13T15:25:19;8.18;;;6.32;;
52306;SDS011;38249;48.920;12.882;2022-09-13T15:27:50;11.65;;;4.18;;
52306;SDS011;38249;48.920;12.882;2022-09-13T15:30:22;5.03;;;4.18;;
52306;SDS011;38249;48.920;12.882;2022-09-13T15:35:48;4.30;;;3.20;;
52306;SDS011;38249;48.920;12.882;2022-09-13T15:38:20;6.55;;;4.20;;
52306;SDS011;38249;48.920;12.882;2022-09-13T15:43:37;4.35;;;3.00;;
52306;SDS011;38249;48.920;12.882;2022-09-13T15:46:05;3.92;;;3.03;;